sensor_id;sensor_type;location;lat;lon;timestamp;P1;durP1;ratioP1;P2;durP2;ratioP2
76795;SDS011;65745;50.278;18.192;2023-07-31T00:00:31;5.20;;;3.80;;
76795;SDS011;65745;50.278;18.192;2023-07-31T00:03:23;4.00;;;3.50;;
76795;SDS011;65745;50.278;18.192;2023-07-31T00:05:55;4.60;;;3.30;;
76795;SDS011;65745;50.278;18.192;2023-07-31T00:08:27;9.90;;;3.60;;
76795;SDS011;65745;50.278;18.192;2023-07-31T00:10:59;7.80;;;4.20;;
76795;SDS011;65745;50.278;18.192;2023-07-31T00:13:31;4.90;;;3.50;;
76795;SDS011;65745;50.278;18.192;2023-07-31T00:16:03;6.40;;;4.00;;
76795;SDS011;65745;50.278;18.192;2023-07-31T00:18:35;4.90;;;4.40;;
76795;SDS011;65745;50.278;18.192;2023-07-31T00:21:07;8.10;;;3.90;;
76795;SDS011;65745;50.278;18.192;2023-07-31T00:23:39;5.40;;;3.60;;
76795;SDS011;65745;50.278;18.192;2023-07-31T00:26:11;5.30;;;3.60;;
76795;SDS011;65745;50.278;18.192;2023-07-31T00:28:43;6.30;;;4.30;;
76795;SDS011;65745;50.278;18.192;2023-07-31T00:31:16;5.80;;;3.90;;
76795;SDS011;65745;50.278;18.192;2023-07-31T00:33:49;5.20;;;4.20;;
76795;SDS011;65745;50.278;18.192;2023-07-31T00:36:21;6.50;;;3.90;;
76795;SDS011;65745;50.278;18.192;2023-07-31T00:38:54;6.50;;;3.90;;
76795;SDS011;65745;50.278;18.192;2023-07-31T00:41:27;6.20;;;4.10;;
76795;SDS011;65745;50.278;18.192;2023-07-31T00:43:59;6.30;;;4.30;;
76795;SDS011;65745;50.278;18.192;2023-07-31T00:46:31;6.80;;;4.50;;
76795;SDS011;65745;50.278;18.192;2023-07-31T00:49:04;6.30;;;3.80;;
76795;SDS011;65745;50.278;18.192;2023-07-31T00:51:37;5.70;;;4.70;;
76795;SDS011;65745;50.278;18.192;2023-07-31T00:54:09;3.60;;;3.10;;
76795;SDS011;65745;50.278;18.192;2023-07-31T00:56:44;3.70;;;3.10;;
76795;SDS011;65745;50.278;18.192;2023-07-31T00:59:18;4.60;;;3.40;;
76795;SDS011;65745;50.278;18.192;2023-07-31T01:01:50;4.00;;;3.20;;
76795;SDS011;65745;50.278;18.192;2023-07-31T01:04:23;3.70;;;2.90;;
76795;SDS011;65745;50.278;18.192;2023-07-31T01:06:57;4.30;;;3.30;;
76795;SDS011;65745;50.278;18.192;2023-07-31T01:09:43;3.70;;;2.60;;
76795;SDS011;65745;50.278;18.192;2023-07-31T01:12:20;3.10;;;2.60;;
76795;SDS011;65745;50.278;18.192;2023-07-31T01:15:03;3.00;;;2.70;;
76795;SDS011;65745;50.278;18.192;2023-07-31T01:17:41;3.00;;;2.40;;
76795;SDS011;65745;50.278;18.192;2023-07-31T01:20:15;2.80;;;2.50;;
76795;SDS011;65745;50.278;18.192;2023-07-31T01:23:03;3.30;;;2.40;;
76795;SDS011;65745;50.278;18.192;2023-07-31T01:25:53;3.50;;;2.60;;
76795;SDS011;65745;50.278;18.192;2023-07-31T01:28:32;2.80;;;2.30;;
76795;SDS011;65745;50.278;18.192;2023-07-31T01:31:09;2.80;;;2.10;;
76795;SDS011;65745;50.278;18.192;2023-07-31T01:33:45;3.00;;;2.20;;
76795;SDS011;65745;50.278;18.192;2023-07-31T01:36:18;2.50;;;2.30;;
76795;SDS011;65745;50.278;18.192;2023-07-31T01:38:50;3.10;;;2.00;;
76795;SDS011;65745;50.278;18.192;2023-07-31T01:41:22;3.00;;;2.40;;
76795;SDS011;65745;50.278;18.192;2023-07-31T01:43:55;3.30;;;2.10;;
76795;SDS011;65745;50.278;18.192;2023-07-31T01:46:27;3.60;;;2.40;;
76795;SDS011;65745;50.278;18.192;2023-07-31T01:48:59;2.60;;;2.20;;
76795;SDS011;65745;50.278;18.192;2023-07-31T01:51:31;2.80;;;2.10;;
76795;SDS011;65745;50.278;18.192;2023-07-31T01:54:04;2.90;;;2.30;;
76795;SDS011;65745;50.278;18.192;2023-07-31T01:56:36;3.20;;;2.50;;
76795;SDS011;65745;50.278;18.192;2023-07-31T01:59:09;3.40;;;2.50;;
76795;SDS011;65745;50.278;18.192;2023-07-31T02:01:41;3.40;;;2.30;;
76795;SDS011;65745;50.278;18.192;2023-07-31T02:04:13;2.80;;;2.20;;
76795;SDS011;65745;50.278;18.192;2023-07-31T02:06:45;4.50;;;2.50;;
76795;SDS011;65745;50.278;18.192;2023-07-31T02:09:17;2.60;;;2.40;;
76795;SDS011;65745;50.278;18.192;2023-07-31T02:11:49;3.10;;;2.70;;
76795;SDS011;65745;50.278;18.192;2023-07-31T02:14:21;3.80;;;2.70;;
76795;SDS011;65745;50.278;18.192;2023-07-31T02:16:54;4.50;;;2.70;;
76795;SDS011;65745;50.278;18.192;2023-07-31T02:19:27;3.10;;;2.70;;
76795;SDS011;65745;50.278;18.192;2023-07-31T02:21:59;2.80;;;2.50;;
76795;SDS011;65745;50.278;18.192;2023-07-31T02:24:32;4.40;;;2.80;;
76795;SDS011;65745;50.278;18.192;2023-07-31T02:27:05;2.60;;;2.20;;
76795;SDS011;65745;50.278;18.192;2023-07-31T02:29:37;2.80;;;2.50;;
76795;SDS011;65745;50.278;18.192;2023-07-31T02:32:09;2.50;;;2.10;;
76795;SDS011;65745;50.278;18.192;2023-07-31T02:34:42;3.90;;;2.70;;
76795;SDS011;65745;50.278;18.192;2023-07-31T02:37:14;4.40;;;2.30;;
76795;SDS011;65745;50.278;18.192;2023-07-31T02:39:46;3.00;;;2.40;;
76795;SDS011;65745;50.278;18.192;2023-07-31T02:42:18;3.20;;;2.40;;
76795;SDS011;65745;50.278;18.192;2023-07-31T02:44:50;3.80;;;2.60;;
76795;SDS011;65745;50.278;18.192;2023-07-31T02:47:25;3.10;;;2.60;;
76795;SDS011;65745;50.278;18.192;2023-07-31T02:49:57;2.60;;;2.10;;
76795;SDS011;65745;50.278;18.192;2023-07-31T02:52:29;4.80;;;2.60;;
76795;SDS011;65745;50.278;18.192;2023-07-31T02:55:02;4.70;;;2.90;;
76795;SDS011;65745;50.278;18.192;2023-07-31T02:57:34;3.70;;;2.80;;
76795;SDS011;65745;50.278;18.192;2023-07-31T03:00:07;2.90;;;2.30;;
76795;SDS011;65745;50.278;18.192;2023-07-31T03:02:40;4.00;;;2.50;;
76795;SDS011;65745;50.278;18.192;2023-07-31T03:05:13;3.20;;;2.60;;
76795;SDS011;65745;50.278;18.192;2023-07-31T03:07:45;3.60;;;2.80;;
76795;SDS011;65745;50.278;18.192;2023-07-31T03:10:17;4.60;;;2.90;;
76795;SDS011;65745;50.278;18.192;2023-07-31T03:12:49;3.60;;;2.90;;
76795;SDS011;65745;50.278;18.192;2023-07-31T03:15:21;3.90;;;2.90;;
76795;SDS011;65745;50.278;18.192;2023-07-31T03:17:53;5.10;;;2.90;;
76795;SDS011;65745;50.278;18.192;2023-07-31T03:20:25;4.40;;;3.40;;
76795;SDS011;65745;50.278;18.192;2023-07-31T03:22:57;3.80;;;3.30;;
76795;SDS011;65745;50.278;18.192;2023-07-31T03:25:29;4.50;;;3.20;;
76795;SDS011;65745;50.278;18.192;2023-07-31T03:28:01;4.30;;;3.50;;
76795;SDS011;65745;50.278;18.192;2023-07-31T03:30:34;3.90;;;2.60;;
76795;SDS011;65745;50.278;18.192;2023-07-31T03:33:07;4.50;;;2.90;;
76795;SDS011;65745;50.278;18.192;2023-07-31T03:35:39;3.60;;;2.90;;
76795;SDS011;65745;50.278;18.192;2023-07-31T03:38:11;3.80;;;3.00;;
76795;SDS011;65745;50.278;18.192;2023-07-31T03:40:43;4.20;;;3.10;;
76795;SDS011;65745;50.278;18.192;2023-07-31T03:43:15;3.40;;;2.70;;
76795;SDS011;65745;50.278;18.192;2023-07-31T03:45:48;4.20;;;3.00;;
76795;SDS011;65745;50.278;18.192;2023-07-31T03:48:21;4.40;;;3.10;;
76795;SDS011;65745;50.278;18.192;2023-07-31T03:50:53;4.60;;;3.50;;
76795;SDS011;65745;50.278;18.192;2023-07-31T03:53:26;4.60;;;3.30;;
76795;SDS011;65745;50.278;18.192;2023-07-31T03:55:58;6.90;;;3.70;;
76795;SDS011;65745;50.278;18.192;2023-07-31T03:58:30;3.50;;;3.00;;
76795;SDS011;65745;50.278;18.192;2023-07-31T04:01:02;5.00;;;2.70;;
76795;SDS011;65745;50.278;18.192;2023-07-31T04:03:34;5.40;;;4.30;;
76795;SDS011;65745;50.278;18.192;2023-07-31T04:06:06;3.80;;;3.10;;
76795;SDS011;65745;50.278;18.192;2023-07-31T04:08:39;2.80;;;2.50;;
76795;SDS011;65745;50.278;18.192;2023-07-31T04:11:11;3.60;;;3.10;;
76795;SDS011;65745;50.278;18.192;2023-07-31T04:13:43;4.80;;;3.40;;
76795;SDS011;65745;50.278;18.192;2023-07-31T04:16:15;3.90;;;3.50;;
76795;SDS011;65745;50.278;18.192;2023-07-31T04:18:47;5.60;;;3.30;;
76795;SDS011;65745;50.278;18.192;2023-07-31T04:21:19;7.80;;;3.60;;
76795;SDS011;65745;50.278;18.192;2023-07-31T04:23:51;6.20;;;3.80;;
76795;SDS011;65745;50.278;18.192;2023-07-31T04:26:25;5.10;;;3.30;;
76795;SDS011;65745;50.278;18.192;2023-07-31T04:28:57;7.70;;;3.70;;
76795;SDS011;65745;50.278;18.192;2023-07-31T04:31:29;6.00;;;3.10;;
76795;SDS011;65745;50.278;18.192;2023-07-31T04:34:01;4.50;;;3.00;;
76795;SDS011;65745;50.278;18.192;2023-07-31T04:36:34;3.60;;;3.00;;
76795;SDS011;65745;50.278;18.192;2023-07-31T04:39:06;4.60;;;3.30;;
76795;SDS011;65745;50.278;18.192;2023-07-31T04:41:39;4.60;;;3.40;;
76795;SDS011;65745;50.278;18.192;2023-07-31T04:44:11;7.20;;;2.90;;
76795;SDS011;65745;50.278;18.192;2023-07-31T04:46:43;5.10;;;2.90;;
76795;SDS011;65745;50.278;18.192;2023-07-31T04:49:15;4.50;;;3.00;;
76795;SDS011;65745;50.278;18.192;2023-07-31T04:51:48;6.40;;;3.00;;
76795;SDS011;65745;50.278;18.192;2023-07-31T04:54:20;4.20;;;2.60;;
76795;SDS011;65745;50.278;18.192;2023-07-31T04:56:55;4.90;;;3.20;;
76795;SDS011;65745;50.278;18.192;2023-07-31T04:59:27;4.00;;;2.80;;
76795;SDS011;65745;50.278;18.192;2023-07-31T05:02:00;4.50;;;2.80;;
76795;SDS011;65745;50.278;18.192;2023-07-31T05:04:33;3.60;;;3.30;;
76795;SDS011;65745;50.278;18.192;2023-07-31T05:07:05;3.70;;;2.90;;
76795;SDS011;65745;50.278;18.192;2023-07-31T05:09:37;3.70;;;2.60;;
76795;SDS011;65745;50.278;18.192;2023-07-31T05:12:09;7.30;;;4.20;;
76795;SDS011;65745;50.278;18.192;2023-07-31T05:14:42;4.70;;;3.00;;
76795;SDS011;65745;50.278;18.192;2023-07-31T05:17:14;6.00;;;3.30;;
76795;SDS011;65745;50.278;18.192;2023-07-31T05:19:46;3.40;;;2.70;;
76795;SDS011;65745;50.278;18.192;2023-07-31T05:22:18;8.30;;;3.30;;
76795;SDS011;65745;50.278;18.192;2023-07-31T05:24:50;5.40;;;3.10;;
76795;SDS011;65745;50.278;18.192;2023-07-31T05:27:23;3.60;;;3.00;;
76795;SDS011;65745;50.278;18.192;2023-07-31T05:29:55;7.00;;;3.70;;
76795;SDS011;65745;50.278;18.192;2023-07-31T05:32:27;5.30;;;3.80;;
76795;SDS011;65745;50.278;18.192;2023-07-31T05:35:00;6.00;;;5.20;;
76795;SDS011;65745;50.278;18.192;2023-07-31T05:37:32;8.70;;;4.90;;
76795;SDS011;65745;50.278;18.192;2023-07-31T05:40:05;4.80;;;3.70;;
76795;SDS011;65745;50.278;18.192;2023-07-31T05:42:39;9.10;;;3.80;;
76795;SDS011;65745;50.278;18.192;2023-07-31T05:45:11;5.00;;;3.70;;
76795;SDS011;65745;50.278;18.192;2023-07-31T05:47:43;4.80;;;3.30;;
76795;SDS011;65745;50.278;18.192;2023-07-31T05:50:15;4.00;;;3.60;;
76795;SDS011;65745;50.278;18.192;2023-07-31T05:52:48;3.40;;;2.90;;
76795;SDS011;65745;50.278;18.192;2023-07-31T05:55:20;4.00;;;3.00;;
76795;SDS011;65745;50.278;18.192;2023-07-31T05:57:52;3.90;;;2.70;;
76795;SDS011;65745;50.278;18.192;2023-07-31T06:00:28;5.00;;;3.40;;
76795;SDS011;65745;50.278;18.192;2023-07-31T06:03:00;3.40;;;2.90;;
76795;SDS011;65745;50.278;18.192;2023-07-31T06:05:33;4.70;;;3.20;;
76795;SDS011;65745;50.278;18.192;2023-07-31T06:08:05;4.20;;;2.80;;
76795;SDS011;65745;50.278;18.192;2023-07-31T06:10:38;5.00;;;2.90;;
76795;SDS011;65745;50.278;18.192;2023-07-31T06:13:10;4.70;;;2.60;;
76795;SDS011;65745;50.278;18.192;2023-07-31T06:15:42;4.10;;;2.90;;
76795;SDS011;65745;50.278;18.192;2023-07-31T06:18:14;5.60;;;3.10;;
76795;SDS011;65745;50.278;18.192;2023-07-31T06:20:46;3.90;;;2.80;;
76795;SDS011;65745;50.278;18.192;2023-07-31T06:23:22;6.40;;;3.10;;
76795;SDS011;65745;50.278;18.192;2023-07-31T06:25:54;3.50;;;2.10;;
76795;SDS011;65745;50.278;18.192;2023-07-31T06:28:28;4.30;;;2.60;;
76795;SDS011;65745;50.278;18.192;2023-07-31T06:31:00;3.70;;;2.60;;
76795;SDS011;65745;50.278;18.192;2023-07-31T06:33:33;5.50;;;3.00;;
76795;SDS011;65745;50.278;18.192;2023-07-31T06:36:05;3.60;;;2.70;;
76795;SDS011;65745;50.278;18.192;2023-07-31T06:38:37;5.00;;;2.70;;
76795;SDS011;65745;50.278;18.192;2023-07-31T06:41:10;3.40;;;2.70;;
76795;SDS011;65745;50.278;18.192;2023-07-31T06:43:42;3.20;;;2.80;;
76795;SDS011;65745;50.278;18.192;2023-07-31T06:46:14;6.60;;;3.00;;
76795;SDS011;65745;50.278;18.192;2023-07-31T06:48:46;4.00;;;2.30;;
76795;SDS011;65745;50.278;18.192;2023-07-31T06:51:18;5.20;;;2.70;;
76795;SDS011;65745;50.278;18.192;2023-07-31T06:53:50;3.50;;;2.60;;
76795;SDS011;65745;50.278;18.192;2023-07-31T06:56:23;3.90;;;2.60;;
76795;SDS011;65745;50.278;18.192;2023-07-31T06:58:55;3.10;;;2.60;;
76795;SDS011;65745;50.278;18.192;2023-07-31T07:01:27;4.50;;;2.40;;
76795;SDS011;65745;50.278;18.192;2023-07-31T07:03:59;3.00;;;2.40;;
76795;SDS011;65745;50.278;18.192;2023-07-31T07:06:31;4.50;;;2.50;;
76795;SDS011;65745;50.278;18.192;2023-07-31T07:09:04;4.40;;;2.20;;
76795;SDS011;65745;50.278;18.192;2023-07-31T07:11:37;3.00;;;1.90;;
76795;SDS011;65745;50.278;18.192;2023-07-31T07:14:09;3.40;;;2.30;;
76795;SDS011;65745;50.278;18.192;2023-07-31T07:16:41;3.00;;;2.10;;
76795;SDS011;65745;50.278;18.192;2023-07-31T07:19:13;3.90;;;2.50;;
76795;SDS011;65745;50.278;18.192;2023-07-31T07:21:45;5.10;;;2.30;;
76795;SDS011;65745;50.278;18.192;2023-07-31T07:24:17;4.50;;;2.20;;
76795;SDS011;65745;50.278;18.192;2023-07-31T07:26:49;6.30;;;3.30;;
76795;SDS011;65745;50.278;18.192;2023-07-31T07:29:21;3.70;;;2.50;;
76795;SDS011;65745;50.278;18.192;2023-07-31T07:31:53;3.60;;;2.70;;
76795;SDS011;65745;50.278;18.192;2023-07-31T07:34:25;7.70;;;2.80;;
76795;SDS011;65745;50.278;18.192;2023-07-31T07:36:58;3.20;;;2.90;;
76795;SDS011;65745;50.278;18.192;2023-07-31T07:39:30;3.90;;;2.50;;
76795;SDS011;65745;50.278;18.192;2023-07-31T07:42:03;6.60;;;2.80;;
76795;SDS011;65745;50.278;18.192;2023-07-31T07:44:35;3.90;;;2.40;;
76795;SDS011;65745;50.278;18.192;2023-07-31T07:47:07;3.90;;;2.50;;
76795;SDS011;65745;50.278;18.192;2023-07-31T07:49:39;4.60;;;2.30;;
76795;SDS011;65745;50.278;18.192;2023-07-31T07:52:18;3.20;;;2.10;;
76795;SDS011;65745;50.278;18.192;2023-07-31T07:54:51;4.50;;;2.10;;
76795;SDS011;65745;50.278;18.192;2023-07-31T07:57:23;6.40;;;2.30;;
76795;SDS011;65745;50.278;18.192;2023-07-31T07:59:55;3.50;;;2.30;;
76795;SDS011;65745;50.278;18.192;2023-07-31T08:02:27;4.20;;;2.40;;
76795;SDS011;65745;50.278;18.192;2023-07-31T08:04:59;4.50;;;2.50;;
76795;SDS011;65745;50.278;18.192;2023-07-31T08:07:32;3.50;;;2.20;;
76795;SDS011;65745;50.278;18.192;2023-07-31T08:10:05;2.70;;;1.90;;
76795;SDS011;65745;50.278;18.192;2023-07-31T08:12:38;3.90;;;2.00;;
76795;SDS011;65745;50.278;18.192;2023-07-31T08:15:10;2.80;;;2.30;;
76795;SDS011;65745;50.278;18.192;2023-07-31T08:17:42;3.80;;;2.00;;
76795;SDS011;65745;50.278;18.192;2023-07-31T08:20:14;5.30;;;2.60;;
76795;SDS011;65745;50.278;18.192;2023-07-31T08:22:47;5.50;;;2.00;;
76795;SDS011;65745;50.278;18.192;2023-07-31T08:25:19;3.80;;;2.30;;
76795;SDS011;65745;50.278;18.192;2023-07-31T08:27:51;3.90;;;2.20;;
76795;SDS011;65745;50.278;18.192;2023-07-31T08:30:23;3.30;;;2.00;;
76795;SDS011;65745;50.278;18.192;2023-07-31T08:32:55;3.30;;;1.90;;
76795;SDS011;65745;50.278;18.192;2023-07-31T08:35:28;5.20;;;2.20;;
76795;SDS011;65745;50.278;18.192;2023-07-31T08:38:00;4.00;;;2.10;;
76795;SDS011;65745;50.278;18.192;2023-07-31T08:40:33;4.30;;;2.20;;
76795;SDS011;65745;50.278;18.192;2023-07-31T08:43:08;4.20;;;2.10;;
76795;SDS011;65745;50.278;18.192;2023-07-31T08:45:42;4.30;;;2.10;;
76795;SDS011;65745;50.278;18.192;2023-07-31T08:48:15;3.20;;;1.90;;
76795;SDS011;65745;50.278;18.192;2023-07-31T08:50:48;3.30;;;1.80;;
76795;SDS011;65745;50.278;18.192;2023-07-31T08:53:20;5.50;;;2.50;;
76795;SDS011;65745;50.278;18.192;2023-07-31T08:55:53;5.10;;;2.20;;
76795;SDS011;65745;50.278;18.192;2023-07-31T08:58:26;3.60;;;1.90;;
76795;SDS011;65745;50.278;18.192;2023-07-31T09:01:03;4.50;;;1.90;;
76795;SDS011;65745;50.278;18.192;2023-07-31T09:03:37;3.00;;;2.00;;
76795;SDS011;65745;50.278;18.192;2023-07-31T09:06:12;3.40;;;1.90;;
76795;SDS011;65745;50.278;18.192;2023-07-31T09:08:46;3.70;;;2.00;;
76795;SDS011;65745;50.278;18.192;2023-07-31T09:11:19;3.50;;;1.80;;
76795;SDS011;65745;50.278;18.192;2023-07-31T09:13:54;2.70;;;1.80;;
76795;SDS011;65745;50.278;18.192;2023-07-31T09:16:31;3.20;;;1.80;;
76795;SDS011;65745;50.278;18.192;2023-07-31T09:19:05;3.10;;;2.00;;
76795;SDS011;65745;50.278;18.192;2023-07-31T09:21:42;3.30;;;1.60;;
76795;SDS011;65745;50.278;18.192;2023-07-31T09:24:25;3.50;;;1.90;;
76795;SDS011;65745;50.278;18.192;2023-07-31T09:27:00;2.80;;;1.80;;
76795;SDS011;65745;50.278;18.192;2023-07-31T09:29:32;2.80;;;1.80;;
76795;SDS011;65745;50.278;18.192;2023-07-31T09:32:05;2.70;;;1.90;;
76795;SDS011;65745;50.278;18.192;2023-07-31T09:34:47;2.20;;;1.60;;
76795;SDS011;65745;50.278;18.192;2023-07-31T09:37:19;4.80;;;1.90;;
76795;SDS011;65745;50.278;18.192;2023-07-31T09:39:51;4.20;;;2.20;;
76795;SDS011;65745;50.278;18.192;2023-07-31T09:42:27;4.60;;;2.20;;
76795;SDS011;65745;50.278;18.192;2023-07-31T09:45:08;2.80;;;2.20;;
76795;SDS011;65745;50.278;18.192;2023-07-31T09:47:48;3.50;;;2.10;;
76795;SDS011;65745;50.278;18.192;2023-07-31T09:50:21;3.50;;;1.80;;
76795;SDS011;65745;50.278;18.192;2023-07-31T09:52:54;3.00;;;1.80;;
76795;SDS011;65745;50.278;18.192;2023-07-31T09:55:26;3.50;;;2.20;;
76795;SDS011;65745;50.278;18.192;2023-07-31T09:58:01;5.10;;;1.90;;
76795;SDS011;65745;50.278;18.192;2023-07-31T10:03:07;4.10;;;1.80;;
76795;SDS011;65745;50.278;18.192;2023-07-31T10:05:42;3.00;;;2.10;;
76795;SDS011;65745;50.278;18.192;2023-07-31T10:08:19;4.60;;;1.90;;
76795;SDS011;65745;50.278;18.192;2023-07-31T10:10:59;2.90;;;1.90;;
76795;SDS011;65745;50.278;18.192;2023-07-31T10:13:32;3.40;;;2.00;;
76795;SDS011;65745;50.278;18.192;2023-07-31T10:16:05;4.50;;;2.20;;
76795;SDS011;65745;50.278;18.192;2023-07-31T10:18:38;2.30;;;2.00;;
76795;SDS011;65745;50.278;18.192;2023-07-31T10:21:11;5.60;;;2.30;;
76795;SDS011;65745;50.278;18.192;2023-07-31T10:23:44;2.00;;;1.60;;
76795;SDS011;65745;50.278;18.192;2023-07-31T10:26:18;3.50;;;2.10;;
76795;SDS011;65745;50.278;18.192;2023-07-31T10:28:53;2.90;;;1.80;;
76795;SDS011;65745;50.278;18.192;2023-07-31T10:31:26;2.90;;;1.80;;
76795;SDS011;65745;50.278;18.192;2023-07-31T10:33:59;4.10;;;2.00;;
76795;SDS011;65745;50.278;18.192;2023-07-31T10:36:32;5.20;;;2.20;;
76795;SDS011;65745;50.278;18.192;2023-07-31T10:39:05;3.00;;;2.00;;
76795;SDS011;65745;50.278;18.192;2023-07-31T10:42:12;5.00;;;2.10;;
76795;SDS011;65745;50.278;18.192;2023-07-31T10:44:46;4.00;;;2.10;;
76795;SDS011;65745;50.278;18.192;2023-07-31T10:47:18;3.60;;;2.00;;
76795;SDS011;65745;50.278;18.192;2023-07-31T10:49:50;3.80;;;2.10;;
76795;SDS011;65745;50.278;18.192;2023-07-31T10:52:22;4.30;;;2.30;;
76795;SDS011;65745;50.278;18.192;2023-07-31T10:57:56;2.40;;;1.70;;
76795;SDS011;65745;50.278;18.192;2023-07-31T11:00:37;4.10;;;1.80;;
76795;SDS011;65745;50.278;18.192;2023-07-31T11:03:11;3.00;;;1.70;;
76795;SDS011;65745;50.278;18.192;2023-07-31T11:05:45;3.20;;;2.00;;
76795;SDS011;65745;50.278;18.192;2023-07-31T11:08:31;3.10;;;1.70;;
76795;SDS011;65745;50.278;18.192;2023-07-31T11:11:08;2.70;;;1.90;;
76795;SDS011;65745;50.278;18.192;2023-07-31T11:13:42;3.00;;;1.80;;
76795;SDS011;65745;50.278;18.192;2023-07-31T11:16:19;3.40;;;1.60;;
76795;SDS011;65745;50.278;18.192;2023-07-31T11:18:52;4.60;;;1.90;;
76795;SDS011;65745;50.278;18.192;2023-07-31T11:21:25;3.30;;;1.90;;
76795;SDS011;65745;50.278;18.192;2023-07-31T11:23:58;4.00;;;1.70;;
76795;SDS011;65745;50.278;18.192;2023-07-31T11:26:30;3.00;;;2.10;;
76795;SDS011;65745;50.278;18.192;2023-07-31T11:29:02;2.90;;;1.80;;
76795;SDS011;65745;50.278;18.192;2023-07-31T11:31:43;3.70;;;1.80;;
76795;SDS011;65745;50.278;18.192;2023-07-31T11:34:17;3.30;;;1.70;;
76795;SDS011;65745;50.278;18.192;2023-07-31T11:36:55;2.80;;;1.70;;
76795;SDS011;65745;50.278;18.192;2023-07-31T11:39:28;3.70;;;1.80;;
76795;SDS011;65745;50.278;18.192;2023-07-31T11:42:01;2.50;;;1.80;;
76795;SDS011;65745;50.278;18.192;2023-07-31T11:44:39;2.20;;;1.40;;
76795;SDS011;65745;50.278;18.192;2023-07-31T11:47:17;3.10;;;1.30;;
76795;SDS011;65745;50.278;18.192;2023-07-31T11:49:50;1.80;;;1.30;;
76795;SDS011;65745;50.278;18.192;2023-07-31T11:52:22;1.70;;;1.30;;
76795;SDS011;65745;50.278;18.192;2023-07-31T11:54:55;2.00;;;1.50;;
76795;SDS011;65745;50.278;18.192;2023-07-31T11:57:28;3.10;;;1.50;;
76795;SDS011;65745;50.278;18.192;2023-07-31T12:00:01;2.50;;;1.90;;
76795;SDS011;65745;50.278;18.192;2023-07-31T12:02:34;3.60;;;1.50;;
76795;SDS011;65745;50.278;18.192;2023-07-31T12:05:11;2.20;;;1.50;;
76795;SDS011;65745;50.278;18.192;2023-07-31T12:07:44;2.80;;;1.80;;
76795;SDS011;65745;50.278;18.192;2023-07-31T12:10:28;3.40;;;1.90;;
76795;SDS011;65745;50.278;18.192;2023-07-31T12:13:03;3.40;;;1.60;;
76795;SDS011;65745;50.278;18.192;2023-07-31T12:15:41;2.40;;;1.50;;
76795;SDS011;65745;50.278;18.192;2023-07-31T12:18:14;2.80;;;1.70;;
76795;SDS011;65745;50.278;18.192;2023-07-31T12:20:54;1.60;;;1.30;;
76795;SDS011;65745;50.278;18.192;2023-07-31T12:23:27;1.70;;;1.10;;
76795;SDS011;65745;50.278;18.192;2023-07-31T12:26:02;2.30;;;1.20;;
76795;SDS011;65745;50.278;18.192;2023-07-31T12:28:38;2.70;;;1.30;;
76795;SDS011;65745;50.278;18.192;2023-07-31T12:31:13;1.10;;;0.80;;
76795;SDS011;65745;50.278;18.192;2023-07-31T12:33:48;1.90;;;1.20;;
76795;SDS011;65745;50.278;18.192;2023-07-31T12:36:22;1.50;;;0.90;;
76795;SDS011;65745;50.278;18.192;2023-07-31T12:38:55;1.80;;;1.00;;
76795;SDS011;65745;50.278;18.192;2023-07-31T12:41:27;1.30;;;1.00;;
76795;SDS011;65745;50.278;18.192;2023-07-31T12:44:00;1.60;;;1.30;;
76795;SDS011;65745;50.278;18.192;2023-07-31T12:46:32;1.30;;;0.90;;
76795;SDS011;65745;50.278;18.192;2023-07-31T12:49:04;2.20;;;1.20;;
76795;SDS011;65745;50.278;18.192;2023-07-31T12:51:36;3.30;;;1.50;;
76795;SDS011;65745;50.278;18.192;2023-07-31T12:54:08;1.90;;;1.10;;
76795;SDS011;65745;50.278;18.192;2023-07-31T12:56:40;2.60;;;1.30;;
76795;SDS011;65745;50.278;18.192;2023-07-31T12:59:13;2.20;;;1.30;;
76795;SDS011;65745;50.278;18.192;2023-07-31T13:01:45;2.20;;;1.20;;
76795;SDS011;65745;50.278;18.192;2023-07-31T13:04:17;2.10;;;1.30;;
76795;SDS011;65745;50.278;18.192;2023-07-31T13:06:49;1.80;;;1.20;;
76795;SDS011;65745;50.278;18.192;2023-07-31T13:09:21;1.50;;;1.00;;
76795;SDS011;65745;50.278;18.192;2023-07-31T13:11:53;2.60;;;1.40;;
76795;SDS011;65745;50.278;18.192;2023-07-31T13:14:25;2.80;;;1.40;;
76795;SDS011;65745;50.278;18.192;2023-07-31T13:16:58;1.80;;;1.10;;
76795;SDS011;65745;50.278;18.192;2023-07-31T13:19:30;1.70;;;1.10;;
76795;SDS011;65745;50.278;18.192;2023-07-31T13:22:02;1.60;;;0.90;;
76795;SDS011;65745;50.278;18.192;2023-07-31T13:24:35;2.40;;;1.40;;
76795;SDS011;65745;50.278;18.192;2023-07-31T13:27:07;1.90;;;1.30;;
76795;SDS011;65745;50.278;18.192;2023-07-31T13:29:40;1.80;;;1.30;;
76795;SDS011;65745;50.278;18.192;2023-07-31T13:32:12;4.20;;;1.50;;
76795;SDS011;65745;50.278;18.192;2023-07-31T13:34:44;2.50;;;1.50;;
76795;SDS011;65745;50.278;18.192;2023-07-31T13:37:17;2.90;;;1.70;;
76795;SDS011;65745;50.278;18.192;2023-07-31T13:39:49;5.40;;;1.50;;
76795;SDS011;65745;50.278;18.192;2023-07-31T13:42:21;2.40;;;1.60;;
76795;SDS011;65745;50.278;18.192;2023-07-31T13:44:53;2.90;;;1.60;;
76795;SDS011;65745;50.278;18.192;2023-07-31T13:47:26;2.60;;;1.60;;
76795;SDS011;65745;50.278;18.192;2023-07-31T13:49:58;3.20;;;1.40;;
76795;SDS011;65745;50.278;18.192;2023-07-31T13:52:30;4.20;;;1.50;;
76795;SDS011;65745;50.278;18.192;2023-07-31T13:55:03;2.70;;;1.50;;
76795;SDS011;65745;50.278;18.192;2023-07-31T13:57:36;2.40;;;1.40;;
76795;SDS011;65745;50.278;18.192;2023-07-31T14:00:09;2.20;;;1.50;;
76795;SDS011;65745;50.278;18.192;2023-07-31T14:05:14;2.70;;;1.40;;
76795;SDS011;65745;50.278;18.192;2023-07-31T14:07:46;2.00;;;1.30;;
76795;SDS011;65745;50.278;18.192;2023-07-31T14:10:18;2.50;;;1.30;;
76795;SDS011;65745;50.278;18.192;2023-07-31T14:12:50;3.30;;;1.30;;
76795;SDS011;65745;50.278;18.192;2023-07-31T14:15:22;3.20;;;1.50;;
76795;SDS011;65745;50.278;18.192;2023-07-31T14:17:54;2.40;;;1.50;;
76795;SDS011;65745;50.278;18.192;2023-07-31T14:20:30;1.80;;;1.30;;
76795;SDS011;65745;50.278;18.192;2023-07-31T14:23:03;2.70;;;1.60;;
76795;SDS011;65745;50.278;18.192;2023-07-31T14:25:35;3.90;;;1.40;;
76795;SDS011;65745;50.278;18.192;2023-07-31T14:28:07;3.10;;;2.00;;
76795;SDS011;65745;50.278;18.192;2023-07-31T14:30:39;3.70;;;1.70;;
76795;SDS011;65745;50.278;18.192;2023-07-31T14:33:11;2.40;;;1.50;;
76795;SDS011;65745;50.278;18.192;2023-07-31T14:35:43;4.40;;;1.70;;
76795;SDS011;65745;50.278;18.192;2023-07-31T14:38:15;3.20;;;1.70;;
76795;SDS011;65745;50.278;18.192;2023-07-31T14:40:47;3.50;;;1.90;;
76795;SDS011;65745;50.278;18.192;2023-07-31T14:43:19;2.70;;;1.50;;
76795;SDS011;65745;50.278;18.192;2023-07-31T14:45:52;4.80;;;2.30;;
76795;SDS011;65745;50.278;18.192;2023-07-31T14:48:27;3.80;;;1.90;;
76795;SDS011;65745;50.278;18.192;2023-07-31T14:50:59;4.30;;;1.90;;
76795;SDS011;65745;50.278;18.192;2023-07-31T14:53:32;2.70;;;1.90;;
76795;SDS011;65745;50.278;18.192;2023-07-31T14:56:04;7.40;;;2.20;;
76795;SDS011;65745;50.278;18.192;2023-07-31T14:58:36;3.80;;;2.00;;
76795;SDS011;65745;50.278;18.192;2023-07-31T15:01:08;2.70;;;1.90;;
76795;SDS011;65745;50.278;18.192;2023-07-31T15:03:40;3.30;;;2.10;;
76795;SDS011;65745;50.278;18.192;2023-07-31T15:06:12;3.10;;;2.10;;
76795;SDS011;65745;50.278;18.192;2023-07-31T15:08:45;4.80;;;2.50;;
76795;SDS011;65745;50.278;18.192;2023-07-31T15:11:17;3.70;;;2.00;;
76795;SDS011;65745;50.278;18.192;2023-07-31T15:13:49;3.60;;;2.40;;
76795;SDS011;65745;50.278;18.192;2023-07-31T15:16:21;3.30;;;2.10;;